createdAt,value
2022-10-07T00:04:53.536Z,101784.63
2022-10-07T00:09:54.892Z,101779.91
2022-10-07T00:14:56.276Z,101781.81
2022-10-07T00:19:57.628Z,101766.38
2022-10-07T00:24:58.985Z,101755.31
2022-10-07T00:30:00.352Z,101758.34
2022-10-07T00:35:01.679Z,101758.31
2022-10-07T00:40:03.324Z,101767.75
2022-10-07T00:45:05.065Z,101752.47
2022-10-07T00:50:27.904Z,101753.44
2022-10-07T00:55:31.604Z,101753.22
2022-10-07T01:00:32.969Z,101751.47
2022-10-07T01:05:34.334Z,101739.59
2022-10-07T01:10:57.108Z,101738.81
2022-10-07T01:16:28.459Z,101732.00
2022-10-07T01:22:14.417Z,101730.06
2022-10-07T01:27:19.185Z,101732.38
2022-10-07T01:32:38.821Z,101715.63
2022-10-07T01:37:47.010Z,101712.31
2022-10-07T01:42:50.098Z,101708.28
2022-10-07T01:47:51.930Z,101697.00
2022-10-07T01:53:13.523Z,101694.91
2022-10-07T01:58:33.274Z,101688.56
2022-10-07T02:03:52.171Z,101669.56
2022-10-07T02:08:56.474Z,101664.97
2022-10-07T02:14:23.982Z,101663.06
2022-10-07T02:19:32.078Z,101660.25
2022-10-07T02:24:35.672Z,101653.09
2022-10-07T02:29:39.550Z,101657.03
2022-10-07T02:34:42.703Z,101650.59
2022-10-07T02:39:44.798Z,101632.44
2022-10-07T02:44:49.782Z,101631.94
2022-10-07T02:49:53.486Z,101624.22
2022-10-07T02:54:58.934Z,101627.56
2022-10-07T03:00:01.544Z,101617.88
2022-10-07T03:05:03.438Z,101610.53
2022-10-07T03:10:07.635Z,101610.88
2022-10-07T03:15:09.431Z,101613.28
2022-10-07T03:20:10.814Z,101608.31
2022-10-07T03:25:12.927Z,101611.19
2022-10-07T03:30:14.423Z,101611.16
2022-10-07T03:35:16.898Z,101614.03
2022-10-07T03:40:18.271Z,101604.28
2022-10-07T03:45:19.646Z,101592.16
2022-10-07T03:50:21.018Z,101598.09
2022-10-07T03:55:22.410Z,101596.44
2022-10-07T04:00:26.464Z,101595.50
2022-10-07T04:05:28.010Z,101592.16
2022-10-07T04:10:29.404Z,101583.34
2022-10-07T04:15:30.763Z,101584.28
2022-10-07T04:20:32.153Z,101576.84
2022-10-07T04:25:33.526Z,101578.75
2022-10-07T04:30:39.533Z,101573.25
2022-10-07T04:35:40.903Z,101566.91
2022-10-07T04:40:44.671Z,101568.94
2022-10-07T04:45:47.727Z,101570.28
2022-10-07T04:50:49.402Z,101568.00
2022-10-07T04:55:51.100Z,101564.59
2022-10-07T05:00:53.680Z,101563.28
2022-10-07T05:05:57.007Z,101553.13
2022-10-07T05:11:00.471Z,101555.50
2022-10-07T05:16:02.749Z,101552.00
2022-10-07T05:21:06.219Z,101549.66
2022-10-07T05:26:07.679Z,101551.41
2022-10-07T05:31:12.287Z,101542.75
2022-10-07T05:36:13.803Z,101534.97
2022-10-07T05:41:15.231Z,101541.78
2022-10-07T05:46:18.929Z,101539.56
2022-10-07T05:51:22.576Z,101528.25
2022-10-07T05:56:24.172Z,101529.22
2022-10-07T06:01:25.663Z,101526.16
2022-10-07T06:06:27.187Z,101527.78
2022-10-07T06:11:48.775Z,101525.41
2022-10-07T06:16:50.256Z,101530.91
2022-10-07T06:21:51.788Z,101528.38
2022-10-07T06:26:53.191Z,101534.78
2022-10-07T06:31:54.589Z,101532.16
2022-10-07T06:36:56.070Z,101533.13
2022-10-07T06:41:57.418Z,101530.34
2022-10-07T06:46:58.849Z,101525.31
2022-10-07T06:52:00.361Z,101527.75
2022-10-07T06:57:01.848Z,101523.28
2022-10-07T07:02:03.437Z,101522.59
2022-10-07T07:07:05.271Z,101528.53
2022-10-07T07:12:06.649Z,101527.28
2022-10-07T07:17:09.774Z,101534.22
2022-10-07T07:22:11.434Z,101528.81
2022-10-07T07:27:12.788Z,101519.06
2022-10-07T07:32:14.219Z,101514.91
2022-10-07T07:37:17.098Z,101519.06
2022-10-07T07:42:18.957Z,101502.38
2022-10-07T07:47:20.506Z,101499.66
2022-10-07T07:52:21.962Z,101498.81
2022-10-07T07:57:23.497Z,101499.56
2022-10-07T08:02:24.931Z,101499.38
2022-10-07T08:07:26.317Z,101492.50
2022-10-07T08:12:27.770Z,101491.47
2022-10-07T08:17:29.187Z,101480.72
2022-10-07T08:22:30.577Z,101480.31
2022-10-07T08:27:32.372Z,101473.09
2022-10-07T08:32:33.947Z,101479.81
2022-10-07T08:37:35.355Z,101472.03
2022-10-07T08:42:40.158Z,101469.34
2022-10-07T08:47:46.974Z,101463.97
2022-10-07T08:52:59.017Z,101458.88
2022-10-07T08:58:28.375Z,101452.13
2022-10-07T09:03:45.543Z,101440.84
2022-10-07T09:08:55.094Z,101437.84
2022-10-07T09:14:19.407Z,101419.75
2022-10-07T09:19:48.327Z,101416.47
2022-10-07T09:24:58.682Z,101410.94
2022-10-07T09:30:00.181Z,101404.09
2022-10-07T09:35:01.629Z,101395.31
2022-10-07T09:40:22.675Z,101379.22
2022-10-07T09:45:33.475Z,101378.72
2022-10-07T09:50:42.640Z,101368.13
2022-10-07T09:55:44.166Z,101362.78
2022-10-07T10:00:57.196Z,101355.41
2022-10-07T10:06:01.190Z,101349.59
2022-10-07T10:11:04.408Z,101351.03
2022-10-07T10:16:27.004Z,101346.81
2022-10-07T10:21:39.261Z,101341.00
2022-10-07T10:26:55.788Z,101329.25
2022-10-07T10:32:45.239Z,101309.06
2022-10-07T10:37:55.783Z,101310.03
2022-10-07T10:43:15.844Z,101305.09
2022-10-07T10:48:26.162Z,101288.59
2022-10-07T10:54:10.388Z,101272.78
2022-10-07T10:59:44.047Z,101257.38
2022-10-07T11:04:57.926Z,101257.75
2022-10-07T11:10:05.324Z,101239.28
2022-10-07T11:15:22.995Z,101228.41
2022-10-07T11:20:35.499Z,101213.63
2022-10-07T11:25:43.085Z,101207.13
2022-10-07T11:30:57.799Z,101202.72
2022-10-07T11:36:12.789Z,101191.28
2022-10-07T11:41:14.123Z,101180.03
2022-10-07T11:46:25.380Z,101162.72
2022-10-07T11:51:34.936Z,101158.19
2022-10-07T11:56:46.583Z,101152.50
2022-10-07T12:01:51.041Z,101130.66
2022-10-07T12:07:30.222Z,101124.41
2022-10-07T12:12:43.935Z,101111.69
2022-10-07T12:17:54.543Z,101102.69
2022-10-07T12:23:25.012Z,101085.59
2022-10-07T12:28:31.936Z,101075.81
2022-10-07T12:33:46.551Z,101066.06
2022-10-07T12:38:57.063Z,101055.28
2022-10-07T12:44:14.781Z,101052.75
2022-10-07T12:49:31.093Z,101041.84
2022-10-07T12:54:50.574Z,101028.16
2022-10-07T12:59:54.621Z,101018.56
2022-10-07T13:05:26.931Z,101011.59
2022-10-07T13:10:56.365Z,101004.00
2022-10-07T13:16:56.501Z,100992.81
2022-10-07T13:22:15.273Z,100983.56
2022-10-07T13:27:20.240Z,100978.13
2022-10-07T13:32:27.542Z,100973.50
2022-10-07T13:37:36.320Z,100965.81
2022-10-07T13:42:38.213Z,100957.28
2022-10-07T13:47:41.243Z,100954.47
2022-10-07T13:52:48.622Z,100949.00
2022-10-07T13:57:50.266Z,100943.44
2022-10-07T14:02:52.263Z,100931.53
2022-10-07T14:07:59.030Z,100921.47
2022-10-07T14:13:03.166Z,100912.06
2022-10-07T14:18:04.495Z,100906.91
2022-10-07T14:23:27.680Z,100909.28
2022-10-07T14:28:32.039Z,100890.28
2022-10-07T14:34:10.623Z,100888.19
2022-10-07T14:39:32.480Z,100884.84
2022-10-07T14:44:33.930Z,100870.56
2022-10-07T14:49:35.312Z,100855.06
2022-10-07T14:54:36.717Z,100850.56
2022-10-07T14:59:38.108Z,100856.03
2022-10-07T15:04:39.553Z,100841.47
2022-10-07T15:09:42.507Z,100848.63
2022-10-07T15:14:44.049Z,100849.88
2022-10-07T15:19:45.410Z,100847.22
2022-10-07T15:24:46.785Z,100835.91
2022-10-07T15:29:48.401Z,100830.59
2022-10-07T15:34:50.930Z,100832.94
2022-10-07T15:39:52.295Z,100823.03
2022-10-07T15:44:53.827Z,100813.50
2022-10-07T15:49:55.215Z,100819.97
2022-10-07T15:54:56.603Z,100819.13
2022-10-07T15:59:57.941Z,100819.41
2022-10-07T16:04:59.296Z,100829.19
2022-10-07T16:10:00.691Z,100825.84
2022-10-07T16:15:02.132Z,100818.84
2022-10-07T16:20:07.674Z,100817.00
2022-10-07T16:25:11.861Z,100817.19
2022-10-07T16:30:13.436Z,100813.53
2022-10-07T16:35:17.586Z,100818.00
2022-10-07T16:40:18.947Z,100816.59
2022-10-07T16:45:21.809Z,100815.22
2022-10-07T16:50:23.305Z,100818.00
2022-10-07T16:55:24.730Z,100816.59
2022-10-07T17:00:26.125Z,100826.09
2022-10-07T17:05:27.601Z,100822.72
2022-10-07T17:10:29.037Z,100820.06
2022-10-07T17:15:30.502Z,100822.84
2022-10-07T17:20:31.900Z,100821.19
2022-10-07T17:25:37.356Z,100815.75
2022-10-07T17:30:38.774Z,100818.56
2022-10-07T17:35:40.179Z,100824.13
2022-10-07T17:40:41.522Z,100838.00
2022-10-07T17:45:42.935Z,100830.25
2022-10-07T17:50:44.277Z,100836.59
2022-10-07T17:55:52.207Z,100837.88
2022-10-07T18:00:53.603Z,100848.19
2022-10-07T18:05:55.088Z,100842.88
2022-10-07T18:10:56.502Z,100842.34
2022-10-07T18:16:02.286Z,100850.59
2022-10-07T18:21:08.376Z,100847.94
2022-10-07T18:26:11.630Z,100832.97
2022-10-07T18:31:14.787Z,100826.97
2022-10-07T18:36:17.657Z,100827.50
2022-10-07T18:41:39.322Z,100826.56
2022-10-07T18:46:40.747Z,100818.88
2022-10-07T18:51:42.831Z,100814.53
2022-10-07T18:56:46.499Z,100821.94
2022-10-07T19:01:50.626Z,100815.50
2022-10-07T19:06:52.675Z,100825.88
2022-10-07T19:11:54.064Z,100816.06
2022-10-07T19:16:55.437Z,100818.59
2022-10-07T19:21:56.797Z,100823.47
2022-10-07T19:26:58.191Z,100810.75
2022-10-07T19:32:02.299Z,100815.25
2022-10-07T19:37:05.870Z,100815.50
2022-10-07T19:42:07.277Z,100816.34
2022-10-07T19:47:08.693Z,100805.88
2022-10-07T19:52:10.054Z,100811.47
2022-10-07T19:57:11.598Z,100806.72
2022-10-07T20:02:13.244Z,100801.81
2022-10-07T20:07:14.826Z,100807.13
2022-10-07T20:12:16.385Z,100804.63
2022-10-07T20:17:17.942Z,100804.31
2022-10-07T20:22:19.685Z,100800.28
2022-10-07T20:27:21.112Z,100791.34
2022-10-07T20:32:23.867Z,100793.69
2022-10-07T20:37:26.003Z,100792.44
2022-10-07T20:42:28.291Z,100794.81
2022-10-07T20:47:32.385Z,100785.03
2022-10-07T20:52:36.033Z,100790.78
2022-10-07T20:57:37.437Z,100792.69
2022-10-07T21:02:38.828Z,100793.38
2022-10-07T21:07:40.218Z,100795.22
2022-10-07T21:12:41.591Z,100793.25
2022-10-07T21:17:44.394Z,100788.91
2022-10-07T21:22:45.912Z,100789.91
2022-10-07T21:27:47.534Z,100790.31
2022-10-07T21:32:49.153Z,100780.25
2022-10-07T21:37:50.750Z,100786.13
2022-10-07T21:42:52.125Z,100782.09
2022-10-07T21:47:53.621Z,100783.19
2022-10-07T21:52:55.030Z,100779.63
2022-10-07T21:57:56.393Z,100784.56
2022-10-07T22:02:57.860Z,100784.94
2022-10-07T22:07:59.264Z,100784.94
2022-10-07T22:13:00.632Z,100784.38
2022-10-07T22:18:02.409Z,100776.84
2022-10-07T22:23:03.807Z,100777.44
2022-10-07T22:28:05.214Z,100780.75
2022-10-07T22:33:06.896Z,100773.31
2022-10-07T22:38:08.244Z,100781.84
2022-10-07T22:43:09.643Z,100775.13
2022-10-07T22:48:11.035Z,100774.94
2022-10-07T22:53:12.388Z,100776.09
2022-10-07T22:58:13.752Z,100775.72
2022-10-07T23:03:15.631Z,100775.69
2022-10-07T23:08:17.151Z,100772.31
2022-10-07T23:13:18.515Z,100778.47
2022-10-07T23:18:19.939Z,100777.16
2022-10-07T23:23:21.296Z,100771.72
2022-10-07T23:28:23.587Z,100773.16
2022-10-07T23:33:24.977Z,100770.31
2022-10-07T23:38:27.384Z,100774.38
2022-10-07T23:43:28.776Z,100768.81
2022-10-07T23:48:30.296Z,100774.34
2022-10-07T23:53:33.249Z,100765.19
2022-10-07T23:58:35.520Z,100766.25
